CKC4 weather

K. Coffey Residence Helipad
Calgary, Alberta, Canada

Public forecast

Using degrees Celsius for public forecast. Weather courtesy of forecast.io.

METAR (pilot weather report)

Closest report is Calgary / Springbank Airport, 4.4 nm (8.1 km) SSW. Retrieved 2019/06/17 00:00 UTC (40 minutes ago):

CYBW 170000Z AUTO 03006KT 9SM CLR 21/06 A3002 RMK SLP174 DENSITY ALT 5400FT

TAF (pilot weather forecast)

Forecast is more than 12 hours old.

Closest forecast is Calgary / Springbank Airport, 4.4 nm (8.1 km) SSW. Retrieved 2019/06/16 00:00 UTC (1 day ago):

TAF CYBW 162338Z 1700/1704 06008KT P6SM FEW070 BECMG 1700/1702 VRB03KT RMK FCST BASED ON AUTO OBS. NXT FCST WILL BE ISSUED AT 171145Z